Terminal Aerodrome Forecast
Issued by NWS Portland, OR

Home | Current Version | Previous Version | Text Only | Print | Product List | Glossary On
Versions: 1 2 3 4 5 6 7 8 9 10 11 12 13 14 15 16 17 18 19 20 21 22 23 24 25 26 27 28 29 30 31 32 33 34 35 36 37 38 39
000
FTUS46 KPQR 281727
TAFEUG
TAF
KEUG 281727Z 2818/2918 17003KT 2SM BR SCT001 SCT060 BKN200
     FM281900 11003KT P6SM SCT060 BKN200
     FM290300 VRB03KT 5SM BR FEW002 SCT050 OVC100
     FM290600 VRB03KT 1/2SM FG BKN002 BKN100=

USA.gov is the U.S. government's official web portal to all federal, state and local government web resources and services.